sensor_id;sensor_type;location;lat;lon;timestamp;temperature;humidity
18335;DHT22;9293;49.524;10.964;2023-02-15T00:00:40;0.90;99.90
18335;DHT22;9293;49.524;10.964;2023-02-15T00:03:08;0.80;99.90
18335;DHT22;9293;49.524;10.964;2023-02-15T00:05:36;0.80;99.90
18335;DHT22;9293;49.524;10.964;2023-02-15T00:08:04;0.80;99.90
18335;DHT22;9293;49.524;10.964;2023-02-15T00:10:32;0.80;99.90
18335;DHT22;9293;49.524;10.964;2023-02-15T00:13:00;0.70;99.90
18335;DHT22;9293;49.524;10.964;2023-02-15T00:15:28;0.70;99.90
18335;DHT22;9293;49.524;10.964;2023-02-15T00:17:57;0.70;99.90
18335;DHT22;9293;49.524;10.964;2023-02-15T00:20:24;0.70;99.90
18335;DHT22;9293;49.524;10.964;2023-02-15T00:22:53;0.60;99.90
18335;DHT22;9293;49.524;10.964;2023-02-15T00:25:21;0.60;99.90
18335;DHT22;9293;49.524;10.964;2023-02-15T00:27:49;0.60;99.90
18335;DHT22;9293;49.524;10.964;2023-02-15T00:30:17;0.60;99.90
18335;DHT22;9293;49.524;10.964;2023-02-15T00:32:47;0.60;99.90
18335;DHT22;9293;49.524;10.964;2023-02-15T00:35:15;0.60;99.90
18335;DHT22;9293;49.524;10.964;2023-02-15T00:37:43;0.60;99.90
18335;DHT22;9293;49.524;10.964;2023-02-15T00:40:12;0.70;99.90
18335;DHT22;9293;49.524;10.964;2023-02-15T00:42:39;0.60;99.90
18335;DHT22;9293;49.524;10.964;2023-02-15T00:45:08;0.70;99.90
18335;DHT22;9293;49.524;10.964;2023-02-15T00:47:36;0.70;99.90
18335;DHT22;9293;49.524;10.964;2023-02-15T00:50:05;0.70;99.90
18335;DHT22;9293;49.524;10.964;2023-02-15T00:52:37;0.60;99.90
18335;DHT22;9293;49.524;10.964;2023-02-15T00:55:08;0.50;99.90
18335;DHT22;9293;49.524;10.964;2023-02-15T00:57:39;0.50;99.90
18335;DHT22;9293;49.524;10.964;2023-02-15T01:00:07;0.50;99.90
18335;DHT22;9293;49.524;10.964;2023-02-15T01:02:35;0.50;99.90
18335;DHT22;9293;49.524;10.964;2023-02-15T01:05:03;0.50;99.90
18335;DHT22;9293;49.524;10.964;2023-02-15T01:07:33;0.60;99.90
18335;DHT22;9293;49.524;10.964;2023-02-15T01:10:01;0.60;99.90
18335;DHT22;9293;49.524;10.964;2023-02-15T01:12:32;0.50;99.90
18335;DHT22;9293;49.524;10.964;2023-02-15T01:15:00;0.50;99.90
18335;DHT22;9293;49.524;10.964;2023-02-15T01:17:28;0.50;99.90
18335;DHT22;9293;49.524;10.964;2023-02-15T01:19:56;0.50;99.90
18335;DHT22;9293;49.524;10.964;2023-02-15T01:22:24;0.40;99.90
18335;DHT22;9293;49.524;10.964;2023-02-15T01:24:53;0.40;99.90
18335;DHT22;9293;49.524;10.964;2023-02-15T01:27:21;0.40;99.90
18335;DHT22;9293;49.524;10.964;2023-02-15T01:29:49;0.40;99.90
18335;DHT22;9293;49.524;10.964;2023-02-15T01:32:17;0.40;99.90
18335;DHT22;9293;49.524;10.964;2023-02-15T01:34:46;0.40;99.90
18335;DHT22;9293;49.524;10.964;2023-02-15T01:37:14;0.50;99.90
18335;DHT22;9293;49.524;10.964;2023-02-15T01:39:42;0.50;99.90
18335;DHT22;9293;49.524;10.964;2023-02-15T01:42:11;0.50;99.90
18335;DHT22;9293;49.524;10.964;2023-02-15T01:44:59;0.40;99.90
18335;DHT22;9293;49.524;10.964;2023-02-15T01:47:40;0.40;99.90
18335;DHT22;9293;49.524;10.964;2023-02-15T01:50:30;0.40;99.90
18335;DHT22;9293;49.524;10.964;2023-02-15T01:53:09;0.40;99.90
18335;DHT22;9293;49.524;10.964;2023-02-15T01:55:46;0.30;99.90
18335;DHT22;9293;49.524;10.964;2023-02-15T01:58:15;0.20;99.90
18335;DHT22;9293;49.524;10.964;2023-02-15T02:00:44;0.20;99.90
18335;DHT22;9293;49.524;10.964;2023-02-15T02:03:13;0.20;99.90
18335;DHT22;9293;49.524;10.964;2023-02-15T02:05:42;0.10;99.90
18335;DHT22;9293;49.524;10.964;2023-02-15T02:08:11;0.10;99.90
18335;DHT22;9293;49.524;10.964;2023-02-15T02:10:39;0.10;99.90
18335;DHT22;9293;49.524;10.964;2023-02-15T02:13:07;0.20;99.90
18335;DHT22;9293;49.524;10.964;2023-02-15T02:15:48;0.20;99.90
18335;DHT22;9293;49.524;10.964;2023-02-15T02:24:14;0.00;99.90
18335;DHT22;9293;49.524;10.964;2023-02-15T02:27:02;0.00;99.90
18335;DHT22;9293;49.524;10.964;2023-02-15T02:41:21;-0.10;99.90
18335;DHT22;9293;49.524;10.964;2023-02-15T02:49:09;-0.20;99.90
18335;DHT22;9293;49.524;10.964;2023-02-15T02:51:37;-0.20;99.90
18335;DHT22;9293;49.524;10.964;2023-02-15T02:54:06;-0.20;99.90
18335;DHT22;9293;49.524;10.964;2023-02-15T02:56:43;-0.20;99.90
18335;DHT22;9293;49.524;10.964;2023-02-15T02:59:32;-0.10;99.90
18335;DHT22;9293;49.524;10.964;2023-02-15T03:02:10;-0.10;99.90
18335;DHT22;9293;49.524;10.964;2023-02-15T03:04:44;-0.10;99.90
18335;DHT22;9293;49.524;10.964;2023-02-15T03:07:19;-0.10;99.90
18335;DHT22;9293;49.524;10.964;2023-02-15T03:09:55;-0.10;99.90
18335;DHT22;9293;49.524;10.964;2023-02-15T03:12:30;-0.10;99.90
18335;DHT22;9293;49.524;10.964;2023-02-15T03:17:39;-0.10;99.90
18335;DHT22;9293;49.524;10.964;2023-02-15T03:20:24;-0.10;99.90
18335;DHT22;9293;49.524;10.964;2023-02-15T03:22:57;-0.10;99.90
18335;DHT22;9293;49.524;10.964;2023-02-15T03:25:34;-0.10;99.90
18335;DHT22;9293;49.524;10.964;2023-02-15T03:28:06;-0.10;99.90
18335;DHT22;9293;49.524;10.964;2023-02-15T03:30:36;-0.10;99.90
18335;DHT22;9293;49.524;10.964;2023-02-15T03:33:07;-0.10;99.90
18335;DHT22;9293;49.524;10.964;2023-02-15T03:38:49;-0.20;99.90
18335;DHT22;9293;49.524;10.964;2023-02-15T03:41:20;-0.20;99.90
18335;DHT22;9293;49.524;10.964;2023-02-15T03:46:42;-0.10;99.90
18335;DHT22;9293;49.524;10.964;2023-02-15T03:49:22;-0.10;99.90
18335;DHT22;9293;49.524;10.964;2023-02-15T03:51:54;-0.10;99.90
18335;DHT22;9293;49.524;10.964;2023-02-15T03:54:29;0.00;99.90
18335;DHT22;9293;49.524;10.964;2023-02-15T03:57:22;0.00;99.90
18335;DHT22;9293;49.524;10.964;2023-02-15T04:00:21;0.00;99.90
18335;DHT22;9293;49.524;10.964;2023-02-15T04:05:50;-0.10;99.90
18335;DHT22;9293;49.524;10.964;2023-02-15T04:08:18;-0.10;99.90
18335;DHT22;9293;49.524;10.964;2023-02-15T04:10:46;-0.10;99.90
18335;DHT22;9293;49.524;10.964;2023-02-15T04:13:22;-0.10;99.90
18335;DHT22;9293;49.524;10.964;2023-02-15T04:15:50;-0.10;99.90
18335;DHT22;9293;49.524;10.964;2023-02-15T04:18:40;-0.10;99.90
18335;DHT22;9293;49.524;10.964;2023-02-15T04:21:29;-0.10;99.90
18335;DHT22;9293;49.524;10.964;2023-02-15T04:24:16;-0.10;99.90
18335;DHT22;9293;49.524;10.964;2023-02-15T04:27:04;-0.10;99.90
18335;DHT22;9293;49.524;10.964;2023-02-15T04:29:35;-0.10;99.90
18335;DHT22;9293;49.524;10.964;2023-02-15T04:32:03;-0.10;99.90
18335;DHT22;9293;49.524;10.964;2023-02-15T04:34:31;-0.20;99.90
18335;DHT22;9293;49.524;10.964;2023-02-15T04:36:59;-0.20;99.90
18335;DHT22;9293;49.524;10.964;2023-02-15T04:39:27;-0.20;99.90
18335;DHT22;9293;49.524;10.964;2023-02-15T04:41:55;-0.30;99.90
18335;DHT22;9293;49.524;10.964;2023-02-15T04:44:23;-0.30;99.90
18335;DHT22;9293;49.524;10.964;2023-02-15T04:46:51;-0.30;99.90
18335;DHT22;9293;49.524;10.964;2023-02-15T04:49:19;-0.30;99.90
18335;DHT22;9293;49.524;10.964;2023-02-15T04:51:47;-0.30;99.90
18335;DHT22;9293;49.524;10.964;2023-02-15T04:54:15;-0.30;99.90
18335;DHT22;9293;49.524;10.964;2023-02-15T04:56:43;-0.30;99.90
18335;DHT22;9293;49.524;10.964;2023-02-15T04:59:11;-0.30;99.90
18335;DHT22;9293;49.524;10.964;2023-02-15T05:01:39;-0.30;99.90
18335;DHT22;9293;49.524;10.964;2023-02-15T05:04:07;-0.40;99.90
18335;DHT22;9293;49.524;10.964;2023-02-15T05:06:35;-0.40;99.90
18335;DHT22;9293;49.524;10.964;2023-02-15T05:09:03;-0.50;99.90
18335;DHT22;9293;49.524;10.964;2023-02-15T05:11:31;-0.50;99.90
18335;DHT22;9293;49.524;10.964;2023-02-15T05:13:59;-0.50;99.90
18335;DHT22;9293;49.524;10.964;2023-02-15T05:16:27;-0.50;99.90
18335;DHT22;9293;49.524;10.964;2023-02-15T05:18:55;-0.40;99.90
18335;DHT22;9293;49.524;10.964;2023-02-15T05:21:23;-0.40;99.90
18335;DHT22;9293;49.524;10.964;2023-02-15T05:23:51;-0.40;99.90
18335;DHT22;9293;49.524;10.964;2023-02-15T05:26:22;-0.50;99.90
18335;DHT22;9293;49.524;10.964;2023-02-15T05:29:09;-0.50;99.90
18335;DHT22;9293;49.524;10.964;2023-02-15T05:31:38;-0.50;99.90
18335;DHT22;9293;49.524;10.964;2023-02-15T05:34:06;-0.50;99.90
18335;DHT22;9293;49.524;10.964;2023-02-15T05:36:34;-0.60;99.90
18335;DHT22;9293;49.524;10.964;2023-02-15T05:39:02;-0.50;99.90
18335;DHT22;9293;49.524;10.964;2023-02-15T05:41:31;-0.60;99.90
18335;DHT22;9293;49.524;10.964;2023-02-15T05:43:59;-0.50;99.90
18335;DHT22;9293;49.524;10.964;2023-02-15T05:46:27;-0.50;99.90
18335;DHT22;9293;49.524;10.964;2023-02-15T05:48:55;-0.50;99.90
18335;DHT22;9293;49.524;10.964;2023-02-15T05:51:23;-0.40;99.90
18335;DHT22;9293;49.524;10.964;2023-02-15T05:53:51;-0.40;99.90
18335;DHT22;9293;49.524;10.964;2023-02-15T05:56:19;-0.40;99.90
18335;DHT22;9293;49.524;10.964;2023-02-15T05:58:47;-0.40;99.90
18335;DHT22;9293;49.524;10.964;2023-02-15T06:01:17;-0.40;99.90
18335;DHT22;9293;49.524;10.964;2023-02-15T06:03:46;-0.50;99.90
18335;DHT22;9293;49.524;10.964;2023-02-15T06:06:17;-0.50;99.90
18335;DHT22;9293;49.524;10.964;2023-02-15T06:08:47;-0.50;99.90
18335;DHT22;9293;49.524;10.964;2023-02-15T06:11:16;-0.60;99.90
18335;DHT22;9293;49.524;10.964;2023-02-15T06:13:44;-0.60;99.90
18335;DHT22;9293;49.524;10.964;2023-02-15T06:16:12;-0.60;99.90
18335;DHT22;9293;49.524;10.964;2023-02-15T06:18:40;-0.60;99.90
18335;DHT22;9293;49.524;10.964;2023-02-15T06:21:08;-0.60;99.90
18335;DHT22;9293;49.524;10.964;2023-02-15T06:23:36;-0.60;99.90
18335;DHT22;9293;49.524;10.964;2023-02-15T06:26:04;-0.60;99.90
18335;DHT22;9293;49.524;10.964;2023-02-15T06:28:31;-0.60;99.90
18335;DHT22;9293;49.524;10.964;2023-02-15T06:30:59;-0.70;99.90
18335;DHT22;9293;49.524;10.964;2023-02-15T06:33:28;-0.60;99.90
18335;DHT22;9293;49.524;10.964;2023-02-15T06:35:58;-0.50;99.90
18335;DHT22;9293;49.524;10.964;2023-02-15T06:38:26;-0.50;99.90
18335;DHT22;9293;49.524;10.964;2023-02-15T06:40:54;-0.50;99.90
18335;DHT22;9293;49.524;10.964;2023-02-15T06:43:22;-0.50;99.90
18335;DHT22;9293;49.524;10.964;2023-02-15T06:45:50;-0.50;99.90
18335;DHT22;9293;49.524;10.964;2023-02-15T06:48:18;-0.50;99.90
18335;DHT22;9293;49.524;10.964;2023-02-15T06:50:46;-0.50;99.90
18335;DHT22;9293;49.524;10.964;2023-02-15T06:53:14;-0.50;99.90
18335;DHT22;9293;49.524;10.964;2023-02-15T06:55:42;-0.60;99.90
18335;DHT22;9293;49.524;10.964;2023-02-15T06:58:09;-0.60;99.90
18335;DHT22;9293;49.524;10.964;2023-02-15T07:00:37;-0.60;99.90
18335;DHT22;9293;49.524;10.964;2023-02-15T07:03:05;-0.70;99.90
18335;DHT22;9293;49.524;10.964;2023-02-15T07:05:34;-0.70;99.90
18335;DHT22;9293;49.524;10.964;2023-02-15T07:08:02;-0.70;99.90
18335;DHT22;9293;49.524;10.964;2023-02-15T07:10:30;-0.70;99.90
18335;DHT22;9293;49.524;10.964;2023-02-15T07:12:58;-0.70;99.90
18335;DHT22;9293;49.524;10.964;2023-02-15T07:15:26;-0.70;99.90
18335;DHT22;9293;49.524;10.964;2023-02-15T07:17:54;-0.70;99.90
18335;DHT22;9293;49.524;10.964;2023-02-15T07:20:23;-0.70;99.90
18335;DHT22;9293;49.524;10.964;2023-02-15T07:22:51;-0.70;99.90
18335;DHT22;9293;49.524;10.964;2023-02-15T07:25:19;-0.70;99.90
18335;DHT22;9293;49.524;10.964;2023-02-15T07:27:47;-0.70;99.90
18335;DHT22;9293;49.524;10.964;2023-02-15T07:30:16;-0.60;99.90
18335;DHT22;9293;49.524;10.964;2023-02-15T07:32:45;-0.50;99.90
18335;DHT22;9293;49.524;10.964;2023-02-15T07:35:32;-0.30;99.90
18335;DHT22;9293;49.524;10.964;2023-02-15T07:38:00;-0.20;99.90
18335;DHT22;9293;49.524;10.964;2023-02-15T07:40:28;-0.30;99.90
18335;DHT22;9293;49.524;10.964;2023-02-15T07:42:58;-0.50;99.90
18335;DHT22;9293;49.524;10.964;2023-02-15T07:45:31;-0.50;99.90
18335;DHT22;9293;49.524;10.964;2023-02-15T07:48:02;-0.50;99.90
18335;DHT22;9293;49.524;10.964;2023-02-15T07:50:31;-0.50;99.90
18335;DHT22;9293;49.524;10.964;2023-02-15T07:53:01;-0.60;99.90
18335;DHT22;9293;49.524;10.964;2023-02-15T07:55:30;-0.60;99.90
18335;DHT22;9293;49.524;10.964;2023-02-15T07:57:58;-0.50;99.90
18335;DHT22;9293;49.524;10.964;2023-02-15T08:00:26;-0.50;99.90
18335;DHT22;9293;49.524;10.964;2023-02-15T08:02:55;-0.50;99.90
18335;DHT22;9293;49.524;10.964;2023-02-15T08:05:44;-0.20;99.90
18335;DHT22;9293;49.524;10.964;2023-02-15T08:08:12;-0.20;99.90
18335;DHT22;9293;49.524;10.964;2023-02-15T08:10:59;-0.40;99.90
18335;DHT22;9293;49.524;10.964;2023-02-15T08:13:46;-0.50;99.90
18335;DHT22;9293;49.524;10.964;2023-02-15T08:19:25;-0.50;99.90
18335;DHT22;9293;49.524;10.964;2023-02-15T08:21:56;-0.50;99.90
18335;DHT22;9293;49.524;10.964;2023-02-15T08:24:27;-0.50;99.90
18335;DHT22;9293;49.524;10.964;2023-02-15T08:26:56;-0.50;99.90
18335;DHT22;9293;49.524;10.964;2023-02-15T08:29:27;-0.50;99.90
18335;DHT22;9293;49.524;10.964;2023-02-15T08:31:58;-0.40;99.90
18335;DHT22;9293;49.524;10.964;2023-02-15T08:34:37;-0.40;99.90
18335;DHT22;9293;49.524;10.964;2023-02-15T08:37:06;-0.40;99.90
18335;DHT22;9293;49.524;10.964;2023-02-15T08:39:34;-0.30;99.90
18335;DHT22;9293;49.524;10.964;2023-02-15T08:42:02;-0.30;99.90
18335;DHT22;9293;49.524;10.964;2023-02-15T08:44:30;-0.30;99.90
18335;DHT22;9293;49.524;10.964;2023-02-15T08:46:59;-0.20;99.90
18335;DHT22;9293;49.524;10.964;2023-02-15T08:49:32;-0.20;99.90
18335;DHT22;9293;49.524;10.964;2023-02-15T08:52:00;-0.20;99.90
18335;DHT22;9293;49.524;10.964;2023-02-15T08:54:28;-0.20;99.90
18335;DHT22;9293;49.524;10.964;2023-02-15T08:56:57;-0.30;99.90
18335;DHT22;9293;49.524;10.964;2023-02-15T08:59:25;-0.30;99.90
18335;DHT22;9293;49.524;10.964;2023-02-15T09:01:54;-0.20;99.90
18335;DHT22;9293;49.524;10.964;2023-02-15T09:04:23;-0.20;99.90
18335;DHT22;9293;49.524;10.964;2023-02-15T09:06:52;-0.20;99.90
18335;DHT22;9293;49.524;10.964;2023-02-15T09:09:21;-0.20;99.90
18335;DHT22;9293;49.524;10.964;2023-02-15T09:11:51;-0.10;99.90
18335;DHT22;9293;49.524;10.964;2023-02-15T09:14:25;-0.10;99.90
18335;DHT22;9293;49.524;10.964;2023-02-15T09:16:54;-0.10;99.90
18335;DHT22;9293;49.524;10.964;2023-02-15T09:19:23;-0.10;99.90
18335;DHT22;9293;49.524;10.964;2023-02-15T09:21:51;-0.20;99.90
18335;DHT22;9293;49.524;10.964;2023-02-15T09:24:19;-0.10;99.90
18335;DHT22;9293;49.524;10.964;2023-02-15T09:26:48;0.00;99.90
18335;DHT22;9293;49.524;10.964;2023-02-15T09:29:17;0.00;99.90
18335;DHT22;9293;49.524;10.964;2023-02-15T09:31:48;0.00;99.90
18335;DHT22;9293;49.524;10.964;2023-02-15T09:34:18;0.10;99.90
18335;DHT22;9293;49.524;10.964;2023-02-15T09:36:47;0.10;99.90
18335;DHT22;9293;49.524;10.964;2023-02-15T09:39:16;0.00;99.90
18335;DHT22;9293;49.524;10.964;2023-02-15T09:50:53;0.30;99.90
18335;DHT22;9293;49.524;10.964;2023-02-15T09:56:49;0.40;99.90
18335;DHT22;9293;49.524;10.964;2023-02-15T09:59:32;0.50;99.90
18335;DHT22;9293;49.524;10.964;2023-02-15T10:02:18;0.40;99.90
18335;DHT22;9293;49.524;10.964;2023-02-15T10:05:01;0.50;99.90
18335;DHT22;9293;49.524;10.964;2023-02-15T10:23:01;0.80;99.90
18335;DHT22;9293;49.524;10.964;2023-02-15T10:25:56;0.80;99.90
18335;DHT22;9293;49.524;10.964;2023-02-15T10:28:51;0.90;99.90
18335;DHT22;9293;49.524;10.964;2023-02-15T10:32:07;0.90;99.90
18335;DHT22;9293;49.524;10.964;2023-02-15T10:43:17;1.00;99.90
18335;DHT22;9293;49.524;10.964;2023-02-15T10:54:53;2.00;99.90
18335;DHT22;9293;49.524;10.964;2023-02-15T11:06:02;2.40;99.90
18335;DHT22;9293;49.524;10.964;2023-02-15T11:08:38;2.50;99.90
18335;DHT22;9293;49.524;10.964;2023-02-15T11:11:10;2.40;99.90
18335;DHT22;9293;49.524;10.964;2023-02-15T11:13:46;2.40;99.90
18335;DHT22;9293;49.524;10.964;2023-02-15T11:16:51;2.40;99.90
18335;DHT22;9293;49.524;10.964;2023-02-15T11:19:30;2.50;99.90
18335;DHT22;9293;49.524;10.964;2023-02-15T11:22:02;2.60;99.90
18335;DHT22;9293;49.524;10.964;2023-02-15T11:24:35;2.70;99.90
18335;DHT22;9293;49.524;10.964;2023-02-15T11:32:21;2.50;99.90
18335;DHT22;9293;49.524;10.964;2023-02-15T11:35:01;2.50;99.90
18335;DHT22;9293;49.524;10.964;2023-02-15T11:37:53;2.50;99.90
18335;DHT22;9293;49.524;10.964;2023-02-15T11:40:35;2.60;99.90
18335;DHT22;9293;49.524;10.964;2023-02-15T11:43:34;2.70;99.90
18335;DHT22;9293;49.524;10.964;2023-02-15T11:46:04;2.90;99.90
18335;DHT22;9293;49.524;10.964;2023-02-15T11:48:32;3.00;99.90
18335;DHT22;9293;49.524;10.964;2023-02-15T11:51:02;3.10;99.90
18335;DHT22;9293;49.524;10.964;2023-02-15T11:53:37;3.10;99.90
18335;DHT22;9293;49.524;10.964;2023-02-15T11:56:13;3.10;99.90
18335;DHT22;9293;49.524;10.964;2023-02-15T11:58:55;3.00;99.90
18335;DHT22;9293;49.524;10.964;2023-02-15T12:01:35;3.10;99.90
18335;DHT22;9293;49.524;10.964;2023-02-15T12:04:22;3.30;99.90
18335;DHT22;9293;49.524;10.964;2023-02-15T12:06:55;3.60;99.90
18335;DHT22;9293;49.524;10.964;2023-02-15T12:09:30;3.60;99.90
18335;DHT22;9293;49.524;10.964;2023-02-15T12:12:27;3.90;99.90
18335;DHT22;9293;49.524;10.964;2023-02-15T12:15:08;3.90;99.90
18335;DHT22;9293;49.524;10.964;2023-02-15T12:23:08;4.60;99.90
18335;DHT22;9293;49.524;10.964;2023-02-15T12:25:53;4.90;99.90
18335;DHT22;9293;49.524;10.964;2023-02-15T12:30:53;6.10;99.90
18335;DHT22;9293;49.524;10.964;2023-02-15T12:33:33;6.60;99.90
18335;DHT22;9293;49.524;10.964;2023-02-15T12:36:18;7.40;99.90
18335;DHT22;9293;49.524;10.964;2023-02-15T12:42:14;8.10;99.90
18335;DHT22;9293;49.524;10.964;2023-02-15T12:44:55;7.90;99.90
18335;DHT22;9293;49.524;10.964;2023-02-15T12:47:24;8.50;99.90
18335;DHT22;9293;49.524;10.964;2023-02-15T12:50:07;9.00;99.90
18335;DHT22;9293;49.524;10.964;2023-02-15T12:52:45;8.60;99.90
18335;DHT22;9293;49.524;10.964;2023-02-15T12:55:27;8.20;99.90
18335;DHT22;9293;49.524;10.964;2023-02-15T12:58:29;8.00;99.90
18335;DHT22;9293;49.524;10.964;2023-02-15T13:01:18;7.90;99.90
18335;DHT22;9293;49.524;10.964;2023-02-15T13:04:06;8.30;99.90
18335;DHT22;9293;49.524;10.964;2023-02-15T13:06:48;8.80;99.90
18335;DHT22;9293;49.524;10.964;2023-02-15T13:09:20;8.60;99.90
18335;DHT22;9293;49.524;10.964;2023-02-15T13:11:49;8.80;99.90
18335;DHT22;9293;49.524;10.964;2023-02-15T13:14:33;9.40;99.90
18335;DHT22;9293;49.524;10.964;2023-02-15T13:17:03;11.00;99.90
18335;DHT22;9293;49.524;10.964;2023-02-15T13:19:35;12.00;99.90
18335;DHT22;9293;49.524;10.964;2023-02-15T13:22:31;12.40;99.90
18335;DHT22;9293;49.524;10.964;2023-02-15T13:25:11;12.40;99.90
18335;DHT22;9293;49.524;10.964;2023-02-15T13:27:42;12.30;99.90
18335;DHT22;9293;49.524;10.964;2023-02-15T13:32:58;13.70;99.90
18335;DHT22;9293;49.524;10.964;2023-02-15T13:35:38;14.20;99.90
18335;DHT22;9293;49.524;10.964;2023-02-15T13:38:31;14.10;99.90
18335;DHT22;9293;49.524;10.964;2023-02-15T13:41:06;13.70;99.90
18335;DHT22;9293;49.524;10.964;2023-02-15T13:43:52;14.20;99.90
18335;DHT22;9293;49.524;10.964;2023-02-15T14:03:31;13.80;99.90
18335;DHT22;9293;49.524;10.964;2023-02-15T14:14:47;15.50;99.90
18335;DHT22;9293;49.524;10.964;2023-02-15T14:20:39;14.50;99.90
18335;DHT22;9293;49.524;10.964;2023-02-15T14:23:28;14.10;99.90
18335;DHT22;9293;49.524;10.964;2023-02-15T14:26:29;13.40;99.90
18335;DHT22;9293;49.524;10.964;2023-02-15T14:31:55;14.30;99.90
18335;DHT22;9293;49.524;10.964;2023-02-15T14:34:50;14.60;99.90
18335;DHT22;9293;49.524;10.964;2023-02-15T14:37:39;15.00;99.90
18335;DHT22;9293;49.524;10.964;2023-02-15T14:49:22;14.10;99.90
18335;DHT22;9293;49.524;10.964;2023-02-15T14:52:00;13.40;99.90
18335;DHT22;9293;49.524;10.964;2023-02-15T15:04:55;14.60;99.90
18335;DHT22;9293;49.524;10.964;2023-02-15T15:07:44;14.80;99.90
18335;DHT22;9293;49.524;10.964;2023-02-15T15:12:54;12.10;99.90
18335;DHT22;9293;49.524;10.964;2023-02-15T15:18:08;10.20;99.90
18335;DHT22;9293;49.524;10.964;2023-02-15T15:20:43;10.00;99.90
18335;DHT22;9293;49.524;10.964;2023-02-15T15:25:49;8.00;99.90
18335;DHT22;9293;49.524;10.964;2023-02-15T15:31:17;7.30;99.90
18335;DHT22;9293;49.524;10.964;2023-02-15T15:34:03;7.30;99.90
18335;DHT22;9293;49.524;10.964;2023-02-15T15:39:12;7.10;99.90
18335;DHT22;9293;49.524;10.964;2023-02-15T15:42:12;6.80;99.90
18335;DHT22;9293;49.524;10.964;2023-02-15T15:50:33;6.00;99.90
18335;DHT22;9293;49.524;10.964;2023-02-15T15:53:04;6.10;99.90
18335;DHT22;9293;49.524;10.964;2023-02-15T15:55:33;6.10;99.90
18335;DHT22;9293;49.524;10.964;2023-02-15T15:58:07;6.00;99.90
18335;DHT22;9293;49.524;10.964;2023-02-15T16:03:21;5.90;99.90
18335;DHT22;9293;49.524;10.964;2023-02-15T16:05:49;5.70;99.90
18335;DHT22;9293;49.524;10.964;2023-02-15T16:08:35;5.50;99.90
18335;DHT22;9293;49.524;10.964;2023-02-15T16:11:15;5.20;99.90
18335;DHT22;9293;49.524;10.964;2023-02-15T16:13:44;4.80;99.90
18335;DHT22;9293;49.524;10.964;2023-02-15T16:16:13;4.60;99.90
18335;DHT22;9293;49.524;10.964;2023-02-15T16:18:42;4.50;99.90
18335;DHT22;9293;49.524;10.964;2023-02-15T16:21:28;4.60;99.90
18335;DHT22;9293;49.524;10.964;2023-02-15T16:24:10;4.70;99.90
18335;DHT22;9293;49.524;10.964;2023-02-15T16:29:39;4.60;99.90
18335;DHT22;9293;49.524;10.964;2023-02-15T16:32:21;4.50;99.90
18335;DHT22;9293;49.524;10.964;2023-02-15T16:34:58;4.30;99.90
18335;DHT22;9293;49.524;10.964;2023-02-15T16:37:32;4.20;99.90
18335;DHT22;9293;49.524;10.964;2023-02-15T16:40:00;4.20;99.90
18335;DHT22;9293;49.524;10.964;2023-02-15T16:42:28;4.10;99.90
18335;DHT22;9293;49.524;10.964;2023-02-15T16:47:39;3.40;99.90
18335;DHT22;9293;49.524;10.964;2023-02-15T16:50:20;3.30;99.90
18335;DHT22;9293;49.524;10.964;2023-02-15T16:52:51;3.20;99.90
18335;DHT22;9293;49.524;10.964;2023-02-15T16:55:26;3.10;99.90
18335;DHT22;9293;49.524;10.964;2023-02-15T16:58:00;3.00;99.90
18335;DHT22;9293;49.524;10.964;2023-02-15T17:00:35;2.90;99.90
18335;DHT22;9293;49.524;10.964;2023-02-15T17:05:44;2.60;99.90
18335;DHT22;9293;49.524;10.964;2023-02-15T17:13:31;2.40;99.90
18335;DHT22;9293;49.524;10.964;2023-02-15T17:18:30;2.20;99.90
18335;DHT22;9293;49.524;10.964;2023-02-15T17:21:09;2.00;99.90
18335;DHT22;9293;49.524;10.964;2023-02-15T17:23:50;1.80;99.90
18335;DHT22;9293;49.524;10.964;2023-02-15T17:26:24;1.60;99.90
18335;DHT22;9293;49.524;10.964;2023-02-15T17:29:01;1.60;99.90
18335;DHT22;9293;49.524;10.964;2023-02-15T17:31:32;1.80;99.90
18335;DHT22;9293;49.524;10.964;2023-02-15T17:34:01;1.70;99.90
18335;DHT22;9293;49.524;10.964;2023-02-15T17:36:30;1.60;99.90
18335;DHT22;9293;49.524;10.964;2023-02-15T17:41:32;1.50;99.90
18335;DHT22;9293;49.524;10.964;2023-02-15T17:44:02;1.50;99.90
18335;DHT22;9293;49.524;10.964;2023-02-15T17:46:35;1.60;99.90
18335;DHT22;9293;49.524;10.964;2023-02-15T17:49:04;1.80;99.90
18335;DHT22;9293;49.524;10.964;2023-02-15T17:51:33;1.90;99.90
18335;DHT22;9293;49.524;10.964;2023-02-15T17:54:03;1.90;99.90
18335;DHT22;9293;49.524;10.964;2023-02-15T17:56:55;2.00;99.90
18335;DHT22;9293;49.524;10.964;2023-02-15T17:59:25;2.00;99.90
18335;DHT22;9293;49.524;10.964;2023-02-15T18:01:53;2.00;99.90
18335;DHT22;9293;49.524;10.964;2023-02-15T18:04:39;1.90;99.90
18335;DHT22;9293;49.524;10.964;2023-02-15T18:07:26;1.80;99.90
18335;DHT22;9293;49.524;10.964;2023-02-15T18:10:17;1.80;99.90
18335;DHT22;9293;49.524;10.964;2023-02-15T18:13:04;1.80;99.90
18335;DHT22;9293;49.524;10.964;2023-02-15T18:15:32;1.70;99.90
18335;DHT22;9293;49.524;10.964;2023-02-15T18:18:01;1.70;99.90
18335;DHT22;9293;49.524;10.964;2023-02-15T18:20:36;1.70;99.90
18335;DHT22;9293;49.524;10.964;2023-02-15T18:23:05;1.60;99.90
18335;DHT22;9293;49.524;10.964;2023-02-15T18:25:33;1.60;99.90
18335;DHT22;9293;49.524;10.964;2023-02-15T18:28:01;1.50;99.90
18335;DHT22;9293;49.524;10.964;2023-02-15T18:30:29;1.50;99.90
18335;DHT22;9293;49.524;10.964;2023-02-15T18:32:58;1.40;99.90
18335;DHT22;9293;49.524;10.964;2023-02-15T18:35:29;1.40;99.90
18335;DHT22;9293;49.524;10.964;2023-02-15T18:37:59;1.30;99.90
18335;DHT22;9293;49.524;10.964;2023-02-15T18:40:28;1.20;99.90
18335;DHT22;9293;49.524;10.964;2023-02-15T18:42:56;1.20;99.90
18335;DHT22;9293;49.524;10.964;2023-02-15T18:45:26;1.10;99.90
18335;DHT22;9293;49.524;10.964;2023-02-15T18:47:59;1.10;99.90
18335;DHT22;9293;49.524;10.964;2023-02-15T18:50:32;1.00;99.90
18335;DHT22;9293;49.524;10.964;2023-02-15T18:53:03;1.00;99.90
18335;DHT22;9293;49.524;10.964;2023-02-15T18:55:37;0.90;99.90
18335;DHT22;9293;49.524;10.964;2023-02-15T18:58:15;0.80;99.90
18335;DHT22;9293;49.524;10.964;2023-02-15T19:00:43;0.80;99.90
18335;DHT22;9293;49.524;10.964;2023-02-15T19:03:13;0.80;99.90
18335;DHT22;9293;49.524;10.964;2023-02-15T19:05:44;1.00;99.90
18335;DHT22;9293;49.524;10.964;2023-02-15T19:08:17;1.00;99.90
18335;DHT22;9293;49.524;10.964;2023-02-15T19:10:46;0.90;99.90
18335;DHT22;9293;49.524;10.964;2023-02-15T19:13:15;0.90;99.90
18335;DHT22;9293;49.524;10.964;2023-02-15T19:15:44;0.90;99.90
18335;DHT22;9293;49.524;10.964;2023-02-15T19:18:12;0.90;99.90
18335;DHT22;9293;49.524;10.964;2023-02-15T19:20:44;0.90;99.90
18335;DHT22;9293;49.524;10.964;2023-02-15T19:23:23;0.90;99.90
18335;DHT22;9293;49.524;10.964;2023-02-15T19:25:52;0.90;99.90
18335;DHT22;9293;49.524;10.964;2023-02-15T19:28:29;0.90;99.90
18335;DHT22;9293;49.524;10.964;2023-02-15T19:31:03;0.90;99.90
18335;DHT22;9293;49.524;10.964;2023-02-15T19:33:34;1.00;99.90
18335;DHT22;9293;49.524;10.964;2023-02-15T19:36:06;1.00;99.90
18335;DHT22;9293;49.524;10.964;2023-02-15T19:38:40;1.10;99.90
18335;DHT22;9293;49.524;10.964;2023-02-15T19:41:26;1.10;99.90